Time;durP1;ratioP1;P1;durP2;ratioP2;P2;SDS_P1;SDS_P2;PMS_P1;PMS_P2;Temp;Humidity;BMP_temperature;BMP_pressure;BME280_temperature;BME280_humidity;BME280_pressure;Samples;Min_cycle;Max_cycle;Signal;HPM_P1;HPM_P2
2022/10/01 00:01:19;;;;;;;10.52;9.00;;;8.70;99.90;;;;;;6235792;22;20220;-77
2022/10/01 00:03:47;;;;;;;10.20;9.30;;;8.70;99.90;;;;;;6227601;22;20283;-77
2022/10/01 00:06:17;;;;;;;9.35;8.65;;;8.70;99.90;;;;;;6238977;22;20192;-77
2022/10/01 00:08:45;;;;;;;9.77;8.88;;;8.70;99.90;;;;;;6235756;22;20200;-77
2022/10/01 00:11:16;;;;;;;10.35;9.25;;;8.60;99.90;;;;;;6247605;22;20191;-78
2022/10/01 00:13:43;;;;;;;10.65;9.70;;;8.60;99.90;;;;;;6234600;22;20685;-77
2022/10/01 00:16:12;;;;;;;10.07;8.93;;;8.60;99.90;;;;;;6239756;23;20193;-77
2022/10/01 00:18:41;;;;;;;10.02;9.23;;;8.60;99.90;;;;;;6237221;22;20185;-77
2022/10/01 00:21:10;;;;;;;12.35;9.73;;;8.50;99.90;;;;;;6226292;23;20212;-77
2022/10/01 00:23:38;;;;;;;11.32;10.23;;;8.50;99.90;;;;;;6252375;22;20246;-79
2022/10/01 00:26:15;;;;;;;12.13;10.30;;;8.50;99.90;;;;;;6235072;22;20197;-79
2022/10/01 00:28:45;;;;;;;11.25;10.10;;;8.50;99.90;;;;;;6229965;22;20548;-79
2022/10/01 00:31:14;;;;;;;10.52;9.48;;;8.50;99.90;;;;;;6239027;22;20206;-79
2022/10/01 00:33:42;;;;;;;10.27;9.27;;;8.50;99.90;;;;;;6235587;22;20679;-79
2022/10/01 00:36:10;;;;;;;10.27;9.30;;;8.50;99.90;;;;;;6232797;22;20192;-79
2022/10/01 00:38:39;;;;;;;9.85;9.00;;;8.50;99.90;;;;;;6238443;22;20187;-79
2022/10/01 00:41:06;;;;;;;10.30;9.30;;;8.40;99.90;;;;;;6247726;22;20195;-79
2022/10/01 00:43:36;;;;;;;12.57;9.35;;;8.40;99.90;;;;;;6250676;22;20668;-79
2022/10/01 00:46:08;;;;;;;10.43;9.52;;;8.40;99.90;;;;;;6252904;22;20219;-79
2022/10/01 00:48:43;;;;;;;10.55;9.65;;;8.40;99.90;;;;;;6233982;22;20192;-79
2022/10/01 00:51:12;;;;;;;10.45;9.45;;;8.50;99.90;;;;;;6247741;22;20273;-79
2022/10/01 00:53:41;;;;;;;9.77;8.88;;;8.50;99.90;;;;;;6235340;22;20205;-79
2022/10/01 00:56:08;;;;;;;9.50;8.60;;;8.50;99.90;;;;;;6236897;23;20217;-79
2022/10/01 00:58:36;;;;;;;9.63;8.70;;;8.50;99.90;;;;;;6232166;22;20275;-79
2022/10/01 01:01:03;;;;;;;10.35;8.98;;;8.50;99.90;;;;;;6250762;22;20277;-79
2022/10/01 01:03:30;;;;;;;9.60;8.80;;;8.50;99.90;;;;;;6250685;22;20370;-78
2022/10/01 01:05:57;;;;;;;8.45;7.75;;;8.60;99.90;;;;;;6248896;22;20742;-79
2022/10/01 01:08:24;;;;;;;7.82;7.22;;;8.60;99.90;;;;;;6252950;22;20208;-79
2022/10/01 01:11:02;;;;;;;7.80;7.03;;;8.70;99.90;;;;;;6234810;22;20740;-79
2022/10/01 01:13:36;;;;;;;6.47;5.88;;;8.70;99.90;;;;;;6237190;22;20236;-79
2022/10/01 01:16:09;;;;;;;7.65;6.85;;;8.80;99.90;;;;;;6237914;23;20238;-79
2022/10/01 01:18:42;;;;;;;10.80;7.07;;;8.80;99.90;;;;;;6239379;22;20198;-79
2022/10/01 01:21:21;;;;;;;6.72;6.15;;;8.90;99.90;;;;;;6244167;22;20212;-79
2022/10/01 01:24:30;;;;;;;6.03;5.53;;;8.90;99.90;;;;;;6245257;22;20257;-79
2022/10/01 01:27:15;;;;;;;5.57;4.93;;;8.90;99.90;;;;;;6240259;22;20217;-79
2022/10/01 01:29:50;;;;;;;5.72;5.22;;;8.90;99.90;;;;;;6237851;22;20218;-79
2022/10/01 01:32:22;;;;;;;6.35;5.85;;;8.90;99.90;;;;;;6239657;22;20226;-79
2022/10/01 01:34:52;;;;;;;5.85;5.35;;;9.00;99.90;;;;;;6240232;22;20237;-79
2022/10/01 01:37:25;;;;;;;6.15;5.63;;;9.00;99.90;;;;;;6254398;22;20221;-78
2022/10/01 01:39:55;;;;;;;5.80;5.30;;;9.00;99.90;;;;;;6265329;22;20190;-78
2022/10/01 01:42:29;;;;;;;5.90;5.40;;;9.00;99.90;;;;;;6259186;22;20733;-78
2022/10/01 01:45:00;;;;;;;5.85;5.30;;;9.00;99.90;;;;;;6237477;22;20258;-78
2022/10/01 01:47:31;;;;;;;7.63;5.55;;;9.10;99.90;;;;;;6238065;23;20235;-78
2022/10/01 01:50:01;;;;;;;5.35;4.90;;;9.20;99.90;;;;;;6238380;22;20200;-78
2022/10/01 01:52:28;;;;;;;5.55;5.15;;;9.20;99.90;;;;;;6244966;22;20213;-78
2022/10/01 01:54:55;;;;;;;4.90;4.60;;;9.20;99.90;;;;;;6237428;22;20196;-78
2022/10/01 01:57:23;;;;;;;4.85;4.45;;;9.30;99.90;;;;;;6240460;22;20635;-77
2022/10/01 01:59:50;;;;;;;4.70;4.30;;;9.30;99.90;;;;;;6234513;22;20321;-78
2022/10/01 02:02:22;;;;;;;4.80;4.40;;;9.30;99.90;;;;;;6245427;22;20297;-77
2022/10/01 02:04:54;;;;;;;4.40;4.05;;;9.40;99.90;;;;;;6215308;22;20362;-77
2022/10/01 02:07:38;;;;;;;5.00;4.60;;;9.50;99.90;;;;;;6237167;22;20267;-77
2022/10/01 02:10:19;;;;;;;4.05;3.75;;;9.50;99.90;;;;;;6252309;22;20708;-77
2022/10/01 02:13:02;;;;;;;4.38;3.80;;;9.60;99.90;;;;;;6233441;22;20738;-78
2022/10/01 02:15:40;;;;;;;4.13;3.72;;;9.70;99.90;;;;;;6252000;22;20270;-77
2022/10/01 02:18:15;;;;;;;3.63;3.30;;;9.70;99.90;;;;;;6245444;22;20194;-77
2022/10/01 02:20:47;;;;;;;3.85;3.55;;;9.80;99.90;;;;;;6245883;22;20261;-77
2022/10/01 02:23:18;;;;;;;3.55;3.25;;;9.90;99.90;;;;;;6267180;22;20318;-77
2022/10/01 02:25:49;;;;;;;3.45;3.10;;;9.90;99.90;;;;;;6249601;22;20640;-76
2022/10/01 02:28:19;;;;;;;3.97;3.67;;;10.00;99.90;;;;;;6236602;22;20188;-77
2022/10/01 02:30:48;;;;;;;3.50;3.20;;;10.00;99.90;;;;;;6261874;22;20190;-77
2022/10/01 02:33:20;;;;;;;3.45;3.17;;;10.10;99.90;;;;;;6239941;22;20247;-76
2022/10/01 02:35:50;;;;;;;3.22;3.03;;;10.10;99.90;;;;;;6245696;22;20200;-76
2022/10/01 02:38:19;;;;;;;3.75;3.45;;;10.10;99.90;;;;;;6257091;22;20192;-76
2022/10/01 02:40:47;;;;;;;3.65;3.35;;;10.20;99.90;;;;;;6264977;22;20243;-76
2022/10/01 02:43:19;;;;;;;4.32;3.65;;;10.20;99.90;;;;;;6247018;22;20698;-77
2022/10/01 02:45:51;;;;;;;4.28;3.75;;;10.20;99.90;;;;;;6238632;23;20723;-77
2022/10/01 02:48:19;;;;;;;3.17;2.97;;;10.20;99.90;;;;;;6236776;22;20529;-76
2022/10/01 02:50:51;;;;;;;3.20;2.90;;;10.20;99.90;;;;;;6244122;22;20595;-76
2022/10/01 02:53:22;;;;;;;3.55;2.85;;;10.20;99.90;;;;;;6235670;22;20247;-77
2022/10/01 02:55:51;;;;;;;2.90;2.70;;;10.30;99.90;;;;;;6252780;22;20196;-77
2022/10/01 02:58:18;;;;;;;3.47;3.17;;;10.20;99.90;;;;;;6240178;22;20220;-77
2022/10/01 03:00:45;;;;;;;3.00;2.80;;;10.20;99.90;;;;;;6224873;22;20181;-76
2022/10/01 03:03:12;;;;;;;2.88;2.67;;;10.20;99.90;;;;;;6239489;22;20567;-76
2022/10/01 03:05:40;;;;;;;2.88;2.67;;;10.10;99.90;;;;;;6248554;22;20239;-76
2022/10/01 03:08:08;;;;;;;3.50;3.20;;;10.10;99.90;;;;;;6249425;22;20280;-77
2022/10/01 03:10:35;;;;;;;3.20;2.95;;;10.00;99.90;;;;;;6262743;22;20219;-71
2022/10/01 03:13:02;;;;;;;3.47;3.17;;;10.00;99.90;;;;;;6238934;22;20207;-73
2022/10/01 03:15:29;;;;;;;3.17;2.85;;;10.00;99.90;;;;;;6235775;22;20261;-77
2022/10/01 03:17:56;;;;;;;3.20;2.97;;;10.10;99.90;;;;;;6243660;22;20188;-78
2022/10/01 03:20:23;;;;;;;3.40;3.10;;;10.10;99.90;;;;;;6238756;22;20218;-80
2022/10/01 03:22:51;;;;;;;2.85;2.65;;;10.00;99.90;;;;;;6250063;22;20294;-78
2022/10/01 03:25:18;;;;;;;3.25;3.05;;;10.00;99.90;;;;;;6253449;22;20279;-77
2022/10/01 03:27:46;;;;;;;3.13;2.92;;;10.00;99.90;;;;;;6236360;22;20189;-77
2022/10/01 03:30:13;;;;;;;3.53;3.25;;;10.00;99.90;;;;;;6237454;23;20227;-75
2022/10/01 03:32:40;;;;;;;2.70;2.50;;;10.00;99.90;;;;;;6237844;22;20291;-75
2022/10/01 03:35:08;;;;;;;2.90;2.70;;;10.00;99.90;;;;;;6240424;22;20644;-76
2022/10/01 03:37:35;;;;;;;2.90;2.70;;;10.00;99.90;;;;;;6245026;22;20286;-78
2022/10/01 03:40:04;;;;;;;3.30;2.90;;;10.00;99.90;;;;;;6250987;22;20222;-77
2022/10/01 03:42:32;;;;;;;2.80;2.60;;;9.90;99.90;;;;;;6245894;22;20208;-76
2022/10/01 03:44:59;;;;;;;4.15;3.20;;;9.80;99.90;;;;;;6261831;22;20198;-75
2022/10/01 03:47:26;;;;;;;3.53;2.80;;;9.80;99.90;;;;;;6266285;22;20190;-75
2022/10/01 03:49:53;;;;;;;3.55;3.05;;;9.80;99.90;;;;;;6247691;22;20268;-77
2022/10/01 03:52:20;;;;;;;3.63;3.20;;;9.80;99.90;;;;;;6248639;22;20550;-77
2022/10/01 03:54:47;;;;;;;3.40;3.20;;;9.80;99.90;;;;;;6240193;22;20194;-77
2022/10/01 03:57:15;;;;;;;2.72;2.53;;;9.80;99.90;;;;;;6237066;22;20214;-76
2022/10/01 03:59:42;;;;;;;3.45;3.03;;;9.80;99.90;;;;;;6260396;22;20205;-75
2022/10/01 04:02:09;;;;;;;3.10;2.80;;;9.80;99.90;;;;;;6240028;22;20253;-75
2022/10/01 04:04:36;;;;;;;3.08;2.80;;;9.80;99.90;;;;;;6235787;22;20664;-75
2022/10/01 04:07:03;;;;;;;2.63;2.40;;;9.90;99.90;;;;;;6235160;22;20294;-75
2022/10/01 04:09:30;;;;;;;3.38;3.08;;;9.90;99.90;;;;;;6248984;22;20239;-77
2022/10/01 04:11:58;;;;;;;2.88;2.67;;;9.90;99.90;;;;;;6245307;22;20682;-78
2022/10/01 04:14:26;;;;;;;3.42;2.55;;;9.90;99.90;;;;;;6238365;23;20195;-78
2022/10/01 04:16:53;;;;;;;5.57;2.75;;;9.70;99.90;;;;;;6220975;23;20263;-78
2022/10/01 04:19:20;;;;;;;3.15;2.60;;;9.90;99.90;;;;;;6239962;22;20192;-76
2022/10/01 04:21:47;;;;;;;3.22;2.92;;;9.90;99.90;;;;;;6248092;22;20222;-77
2022/10/01 04:24:14;;;;;;;3.30;2.90;;;9.90;99.90;;;;;;6262915;22;20219;-78
2022/10/01 04:26:41;;;;;;;2.95;2.72;;;9.80;99.90;;;;;;6238145;22;20249;-79
2022/10/01 04:29:08;;;;;;;3.60;2.90;;;9.80;99.90;;;;;;6236300;22;20270;-81
2022/10/01 04:31:36;;;;;;;3.97;3.22;;;9.80;99.90;;;;;;6235589;22;20237;-76
2022/10/01 04:34:04;;;;;;;4.18;3.10;;;9.70;99.90;;;;;;6242549;22;20265;-76
2022/10/01 04:36:31;;;;;;;3.13;2.92;;;9.70;99.90;;;;;;6239108;23;20185;-76
2022/10/01 04:38:58;;;;;;;4.15;3.83;;;9.70;99.90;;;;;;6264287;22;20213;-76
2022/10/01 04:41:25;;;;;;;3.20;3.00;;;9.70;99.90;;;;;;6230843;22;20183;-76
2022/10/01 04:43:52;;;;;;;3.83;3.30;;;9.60;99.90;;;;;;6217225;22;20184;-76
2022/10/01 04:46:19;;;;;;;4.40;4.00;;;9.60;99.90;;;;;;6234911;22;20302;-77
2022/10/01 04:48:49;;;;;;;4.53;4.13;;;9.60;99.90;;;;;;6244292;22;20219;-76
2022/10/01 04:51:16;;;;;;;5.22;4.18;;;9.60;99.90;;;;;;6246012;22;20664;-76
2022/10/01 04:53:43;;;;;;;4.60;4.30;;;9.50;99.90;;;;;;6233681;22;20227;-76
2022/10/01 04:56:10;;;;;;;4.53;4.13;;;9.50;99.90;;;;;;6230964;22;20535;-76
2022/10/01 04:58:37;;;;;;;4.72;4.15;;;9.50;99.90;;;;;;6238025;23;20263;-76
2022/10/01 05:01:04;;;;;;;4.70;4.30;;;9.50;99.90;;;;;;6239323;23;20183;-77
2022/10/01 05:03:32;;;;;;;4.57;4.18;;;9.50;99.90;;;;;;6237537;22;20610;-77
2022/10/01 05:06:01;;;;;;;4.55;4.15;;;9.50;99.90;;;;;;6230249;22;20210;-77
2022/10/01 05:08:28;;;;;;;4.10;3.70;;;9.50;99.90;;;;;;6235844;22;20262;-77
2022/10/01 05:10:55;;;;;;;2.97;2.78;;;9.50;99.90;;;;;;6241178;22;20187;-77
2022/10/01 05:13:22;;;;;;;2.97;2.78;;;9.60;99.90;;;;;;6221277;22;20278;-79
2022/10/01 05:15:50;;;;;;;2.60;2.40;;;9.60;99.90;;;;;;6251307;22;20262;-79
2022/10/01 05:18:17;;;;;;;2.70;2.50;;;9.70;99.90;;;;;;6232302;22;20184;-76
2022/10/01 05:20:44;;;;;;;2.42;2.22;;;9.80;99.90;;;;;;6233533;23;20226;-79
2022/10/01 05:23:13;;;;;;;2.65;2.45;;;9.90;99.90;;;;;;6239754;22;20289;-75
2022/10/01 05:25:41;;;;;;;2.20;2.10;;;9.90;99.90;;;;;;6236596;22;20666;-83
2022/10/01 05:28:08;;;;;;;2.42;2.22;;;10.00;99.90;;;;;;6241710;22;20195;-83
2022/10/01 05:30:35;;;;;;;2.50;2.00;;;10.00;99.90;;;;;;6234020;22;20187;-82
2022/10/01 05:33:05;;;;;;;2.33;2.13;;;10.00;99.90;;;;;;6210495;22;20208;-83
2022/10/01 05:35:32;;;;;;;2.50;2.30;;;10.00;99.90;;;;;;6233550;22;20271;-80
2022/10/01 05:38:01;;;;;;;2.13;2.03;;;10.00;99.90;;;;;;6238591;23;20267;-80
2022/10/01 05:40:30;;;;;;;2.53;2.33;;;10.10;99.90;;;;;;6236088;22;20249;-79
2022/10/01 05:42:59;;;;;;;2.10;1.90;;;10.10;99.90;;;;;;6239061;22;20290;-77
2022/10/01 05:45:28;;;;;;;2.15;1.95;;;10.10;99.90;;;;;;6249935;22;20200;-81
2022/10/01 05:47:59;;;;;;;2.30;2.10;;;10.10;99.90;;;;;;6245824;22;20188;-81
2022/10/01 05:50:26;;;;;;;2.40;2.20;;;10.10;99.90;;;;;;6243824;22;20267;-81
2022/10/01 05:52:54;;;;;;;3.47;2.40;;;10.10;99.90;;;;;;6234910;22;20228;-80
2022/10/01 05:55:22;;;;;;;2.60;2.40;;;10.10;99.90;;;;;;6244345;22;20222;-81
2022/10/01 05:58:01;;;;;;;2.05;1.90;;;10.10;99.90;;;;;;6234421;22;20192;-82
2022/10/01 06:00:30;;;;;;;2.70;2.40;;;10.10;99.90;;;;;;6238210;23;20199;-82
2022/10/01 06:02:58;;;;;;;3.60;2.20;;;10.10;99.90;;;;;;6246753;22;20301;-81
2022/10/01 06:05:25;;;;;;;2.80;2.60;;;10.10;99.90;;;;;;6246918;22;20657;-83
2022/10/01 06:07:53;;;;;;;2.80;2.60;;;10.10;99.90;;;;;;6242430;22;20224;-77
2022/10/01 06:10:21;;;;;;;2.80;2.60;;;10.10;99.90;;;;;;6247276;22;20273;-73
2022/10/01 06:12:48;;;;;;;2.90;2.70;;;10.00;99.90;;;;;;6249476;22;20211;-76
2022/10/01 06:15:18;;;;;;;3.50;3.20;;;9.90;99.90;;;;;;6245709;22;20230;-75
2022/10/01 06:17:45;;;;;;;4.30;3.30;;;9.90;99.90;;;;;;6231359;22;20208;-77
2022/10/01 06:20:14;;;;;;;4.03;3.67;;;9.90;99.90;;;;;;6235281;22;20194;-79
2022/10/01 06:22:42;;;;;;;3.88;3.50;;;9.90;99.90;;;;;;6224645;22;20207;-83
2022/10/01 06:25:10;;;;;;;3.90;3.60;;;9.90;99.90;;;;;;6227206;22;20191;-83
2022/10/01 06:27:38;;;;;;;4.20;3.20;;;9.80;99.90;;;;;;6221330;22;20212;-81
2022/10/01 06:30:06;;;;;;;3.88;3.58;;;9.80;99.90;;;;;;6226264;22;20187;-82
2022/10/01 06:32:34;;;;;;;4.00;3.60;;;9.70;99.90;;;;;;6224230;22;20209;-80
2022/10/01 06:35:01;;;;;;;3.30;3.08;;;9.70;99.90;;;;;;6209281;23;20188;-79
2022/10/01 06:37:28;;;;;;;3.92;3.53;;;9.70;99.90;;;;;;6225777;22;20229;-80
2022/10/01 06:39:55;;;;;;;4.20;3.35;;;9.60;99.90;;;;;;6237408;22;20690;-79
2022/10/01 06:42:22;;;;;;;4.25;3.03;;;9.60;99.90;;;;;;6234326;22;20204;-78
2022/10/01 06:44:49;;;;;;;4.57;3.10;;;9.60;99.90;;;;;;6227601;22;20298;-79
2022/10/01 06:47:16;;;;;;;4.18;3.35;;;9.60;99.90;;;;;;6216907;22;20681;-80
2022/10/01 06:49:44;;;;;;;3.85;3.55;;;9.60;99.90;;;;;;6227649;22;20280;-80
2022/10/01 06:54:56;;;;;;;3.85;3.30;;;9.60;99.90;;;;;;6240367;22;20209;-77
2022/10/01 06:57:23;;;;;;;6.32;3.30;;;9.60;99.90;;;;;;6241834;22;20179;-77
2022/10/01 06:59:50;;;;;;;4.28;3.58;;;9.60;99.90;;;;;;6233680;22;20437;-77
2022/10/01 07:02:27;;;;;;;3.60;3.30;;;9.60;99.90;;;;;;6233690;22;20742;-80
2022/10/01 07:04:58;;;;;;;3.80;3.50;;;9.60;99.90;;;;;;6233154;22;20302;-78
2022/10/01 07:07:29;;;;;;;4.05;3.65;;;9.60;99.90;;;;;;6243141;22;20209;-77
2022/10/01 07:09:56;;;;;;;4.13;3.72;;;9.60;99.90;;;;;;6241245;22;20186;-81
2022/10/01 07:12:23;;;;;;;3.70;3.40;;;9.60;99.90;;;;;;6229759;22;20199;-80
2022/10/01 07:14:49;;;;;;;4.50;4.10;;;9.60;99.90;;;;;;6237564;22;20335;-79
2022/10/01 07:17:17;;;;;;;6.18;3.78;;;9.60;99.90;;;;;;6238543;22;20536;-80
2022/10/01 07:19:44;;;;;;;4.32;3.92;;;9.50;99.90;;;;;;6257538;22;20196;-81
2022/10/01 07:22:12;;;;;;;4.93;4.20;;;9.50;99.90;;;;;;6254548;22;20637;-80
2022/10/01 07:24:39;;;;;;;5.28;3.83;;;9.60;99.90;;;;;;6240457;22;20324;-81
2022/10/01 07:27:06;;;;;;;4.13;3.80;;;9.50;99.90;;;;;;6250419;22;20216;-80
2022/10/01 07:29:33;;;;;;;4.97;3.90;;;9.50;99.90;;;;;;6242332;22;20221;-78
2022/10/01 07:32:07;;;;;;;4.45;4.05;;;9.50;99.90;;;;;;6239799;22;20211;-79
2022/10/01 07:34:35;;;;;;;3.67;3.38;;;9.50;99.90;;;;;;6228047;22;20235;-78
2022/10/01 07:37:02;;;;;;;4.03;3.70;;;9.40;99.90;;;;;;6238491;22;20274;-78
2022/10/01 07:39:31;;;;;;;3.80;3.50;;;9.40;99.90;;;;;;6236000;22;20709;-79
2022/10/01 07:41:58;;;;;;;5.00;3.47;;;9.40;99.90;;;;;;6241334;22;20206;-78
2022/10/01 07:44:26;;;;;;;3.97;3.63;;;9.40;99.90;;;;;;6246454;22;20193;-78
2022/10/01 07:46:53;;;;;;;5.90;3.90;;;9.40;99.90;;;;;;6237676;22;20209;-78
2022/10/01 07:49:20;;;;;;;3.97;3.67;;;9.40;99.90;;;;;;6244011;22;20196;-78
2022/10/01 07:51:48;;;;;;;3.67;3.33;;;9.40;99.90;;;;;;6218037;22;20208;-78
2022/10/01 07:54:15;;;;;;;3.72;3.28;;;9.40;99.90;;;;;;6246168;22;20210;-77
2022/10/01 07:56:43;;;;;;;3.72;2.88;;;9.40;99.90;;;;;;6239423;23;20192;-77
2022/10/01 07:59:10;;;;;;;3.78;3.30;;;9.50;99.90;;;;;;6243877;22;20669;-75
2022/10/01 08:01:37;;;;;;;4.75;2.90;;;9.40;99.90;;;;;;6238083;22;20241;-73
2022/10/01 08:05:16;;;;;;;4.05;3.00;;;9.40;99.90;;;;;;6268200;22;20228;-72
2022/10/01 08:06:53;;;;;;;3.70;3.33;;;9.50;99.90;;;;;;6243437;22;20272;-74
2022/10/01 08:09:20;;;;;;;3.58;3.28;;;9.50;99.90;;;;;;6239765;23;20284;-73
2022/10/01 08:11:48;;;;;;;3.67;3.35;;;9.50;99.90;;;;;;6232399;22;20584;-73
2022/10/01 08:14:19;;;;;;;4.13;3.35;;;9.50;99.90;;;;;;6222090;22;20243;-73
2022/10/01 08:16:46;;;;;;;4.20;3.40;;;9.50;99.90;;;;;;6239468;23;20260;-73
2022/10/01 08:19:13;;;;;;;3.15;2.85;;;9.50;99.90;;;;;;6240815;22;20244;-73
2022/10/01 08:21:41;;;;;;;4.15;3.70;;;9.50;99.90;;;;;;6221785;22;20313;-73
2022/10/01 08:24:09;;;;;;;3.47;3.17;;;9.50;99.90;;;;;;6237139;22;20274;-72
2022/10/01 08:26:36;;;;;;;3.85;3.55;;;9.60;99.90;;;;;;6235742;22;20259;-73
2022/10/01 08:29:04;;;;;;;3.75;3.45;;;9.60;99.90;;;;;;6239091;22;20218;-72
2022/10/01 08:31:31;;;;;;;3.83;3.63;;;9.60;99.90;;;;;;6219482;23;20206;-72
2022/10/01 08:33:58;;;;;;;4.00;3.60;;;9.60;99.90;;;;;;6232452;22;20232;-72
2022/10/01 08:36:25;;;;;;;4.40;3.20;;;9.60;99.90;;;;;;6263940;22;20220;-73
2022/10/01 08:38:52;;;;;;;4.15;3.75;;;9.70;99.90;;;;;;6246545;22;20192;-73
2022/10/01 08:41:33;;;;;;;4.30;3.90;;;9.70;99.90;;;;;;6237801;22;20687;-73
2022/10/01 08:44:05;;;;;;;3.70;3.40;;;9.70;99.90;;;;;;6238915;23;20196;-72
2022/10/01 08:46:35;;;;;;;3.38;3.08;;;9.70;99.90;;;;;;6236624;22;20285;-72
2022/10/01 08:49:12;;;;;;;3.50;2.97;;;9.70;99.90;;;;;;6238663;22;20260;-72
2022/10/01 08:51:46;;;;;;;2.58;2.38;;;9.80;99.90;;;;;;6224688;23;20303;-72
2022/10/01 08:54:22;;;;;;;2.88;2.67;;;9.80;99.90;;;;;;6237384;22;20195;-72
2022/10/01 08:56:49;;;;;;;2.90;2.70;;;9.90;99.90;;;;;;6222777;22;20193;-72
2022/10/01 08:59:32;;;;;;;2.50;2.30;;;9.90;99.90;;;;;;6252558;22;20646;-72
2022/10/01 09:01:59;;;;;;;3.05;2.58;;;10.00;99.90;;;;;;6260615;22;20289;-72
2022/10/01 09:04:27;;;;;;;3.83;2.70;;;10.00;99.90;;;;;;6243314;22;20184;-72
2022/10/01 09:07:00;;;;;;;3.00;2.80;;;10.00;99.90;;;;;;6238365;22;20241;-72
2022/10/01 09:09:41;;;;;;;2.00;1.80;;;10.10;99.90;;;;;;6242278;22;20305;-72
2022/10/01 09:12:22;;;;;;;2.55;2.35;;;10.10;99.90;;;;;;6237627;22;20282;-72
2022/10/01 09:15:16;;;;;;;2.47;2.28;;;10.20;99.90;;;;;;6218331;23;20261;-73
2022/10/01 09:17:57;;;;;;;2.60;2.40;;;10.20;99.90;;;;;;6240474;23;20190;-72
2022/10/01 09:20:27;;;;;;;2.67;2.42;;;10.30;99.90;;;;;;6237545;22;20555;-73
2022/10/01 09:23:06;;;;;;;5.95;3.17;;;10.30;99.90;;;;;;6239646;22;20278;-72
2022/10/01 09:25:37;;;;;;;3.63;2.70;;;10.30;99.90;;;;;;6251678;22;20194;-72
2022/10/01 09:28:13;;;;;;;2.30;2.20;;;10.40;99.90;;;;;;6238012;22;20208;-73
2022/10/01 09:30:45;;;;;;;2.97;2.78;;;10.50;99.90;;;;;;6238753;22;20295;-73
2022/10/01 09:33:15;;;;;;;1.90;1.80;;;10.60;99.90;;;;;;6239557;23;20191;-73
2022/10/01 09:35:45;;;;;;;2.83;2.60;;;10.60;99.90;;;;;;6236857;22;20271;-73
2022/10/01 09:38:18;;;;;;;2.75;2.55;;;10.70;99.90;;;;;;6238774;22;20196;-73
2022/10/01 09:40:53;;;;;;;2.58;2.38;;;10.70;99.90;;;;;;6239761;22;20200;-73
2022/10/01 09:43:22;;;;;;;2.50;2.30;;;10.70;99.90;;;;;;6241108;23;20228;-73
2022/10/01 09:45:51;;;;;;;2.88;2.67;;;10.70;99.90;;;;;;6240532;22;20686;-73
2022/10/01 09:48:32;;;;;;;2.55;2.38;;;10.80;99.90;;;;;;6238828;23;20784;-73
2022/10/01 09:51:06;;;;;;;3.08;1.98;;;10.80;99.90;;;;;;6237625;22;20219;-72
2022/10/01 09:53:40;;;;;;;2.42;2.22;;;10.80;99.90;;;;;;6253894;22;20255;-73
2022/10/01 09:56:14;;;;;;;1.63;1.52;;;10.80;99.90;;;;;;6264470;22;20278;-73
2022/10/01 09:58:46;;;;;;;1.75;1.60;;;10.90;99.90;;;;;;6244283;22;20287;-73
2022/10/01 10:01:22;;;;;;;1.30;1.20;;;10.90;99.90;;;;;;6239204;22;20224;-73
2022/10/01 10:03:55;;;;;;;2.00;1.80;;;10.90;99.90;;;;;;6238217;22;20215;-72
2022/10/01 10:06:26;;;;;;;1.85;1.63;;;10.90;99.90;;;;;;6238949;23;20188;-73
2022/10/01 10:08:55;;;;;;;1.60;1.50;;;11.00;99.90;;;;;;6240143;22;20252;-73
2022/10/01 10:11:25;;;;;;;1.77;1.67;;;11.00;99.90;;;;;;6257606;22;20208;-73
2022/10/01 10:13:55;;;;;;;1.67;1.58;;;11.00;99.90;;;;;;6238390;23;20224;-73
2022/10/01 10:16:27;;;;;;;2.17;1.50;;;11.00;99.90;;;;;;6239869;23;20226;-73
2022/10/01 10:18:57;;;;;;;1.63;1.52;;;11.10;99.90;;;;;;6237001;23;20193;-73
2022/10/01 10:21:27;;;;;;;2.20;1.45;;;11.10;99.90;;;;;;6237126;23;20216;-73
2022/10/01 10:23:56;;;;;;;2.15;1.60;;;11.00;99.90;;;;;;6249171;22;20602;-73
2022/10/01 10:26:30;;;;;;;1.80;1.70;;;11.10;99.90;;;;;;6238726;22;20542;-73
2022/10/01 10:28:58;;;;;;;1.98;1.80;;;11.10;99.90;;;;;;6239445;23;20308;-73
2022/10/01 10:31:30;;;;;;;1.90;1.80;;;11.10;99.90;;;;;;6235197;22;20254;-73
2022/10/01 10:34:06;;;;;;;2.00;1.90;;;11.00;99.90;;;;;;6220012;22;20263;-74
2022/10/01 10:36:35;;;;;;;2.42;2.22;;;11.10;99.90;;;;;;6231043;22;20218;-73
2022/10/01 10:39:05;;;;;;;1.80;1.70;;;11.10;99.90;;;;;;6240521;23;20185;-73
2022/10/01 10:41:34;;;;;;;2.05;1.73;;;11.10;99.90;;;;;;6238843;22;20208;-73
2022/10/01 10:44:05;;;;;;;2.20;1.70;;;11.20;99.90;;;;;;6236946;22;20257;-73
2022/10/01 10:46:37;;;;;;;1.40;1.30;;;11.30;99.90;;;;;;6239584;23;20670;-73
2022/10/01 10:49:07;;;;;;;2.00;1.70;;;11.30;99.90;;;;;;6239379;23;20239;-73
2022/10/01 10:51:52;;;;;;;1.30;1.20;;;11.40;99.90;;;;;;6239212;23;20208;-74
2022/10/01 10:54:23;;;;;;;1.48;1.38;;;11.40;99.90;;;;;;6227551;22;20188;-74
2022/10/01 10:56:55;;;;;;;1.50;1.40;;;11.50;99.90;;;;;;6237813;22;20208;-73
2022/10/01 10:59:22;;;;;;;1.30;1.20;;;11.50;99.90;;;;;;6229355;22;20268;-74
2022/10/01 11:01:51;;;;;;;1.15;1.00;;;11.60;99.90;;;;;;6239313;22;20271;-73
2022/10/01 11:04:26;;;;;;;1.50;1.00;;;11.60;99.90;;;;;;6237431;23;20316;-74
2022/10/01 11:06:55;;;;;;;1.30;1.20;;;11.60;99.90;;;;;;6239525;23;20516;-74
2022/10/01 11:09:27;;;;;;;1.50;1.20;;;11.60;99.90;;;;;;6223139;22;20363;-74
2022/10/01 11:12:01;;;;;;;1.85;1.20;;;11.70;99.90;;;;;;6217018;22;20193;-74
2022/10/01 11:14:43;;;;;;;1.00;0.90;;;11.80;99.90;;;;;;6236431;23;20188;-75
2022/10/01 11:17:54;;;;;;;1.30;1.20;;;11.90;99.90;;;;;;6213728;22;20181;-75
2022/10/01 11:20:39;;;;;;;1.23;1.10;;;11.90;99.90;;;;;;6238788;23;20212;-74
2022/10/01 11:23:22;;;;;;;2.28;1.00;;;12.00;99.90;;;;;;6232314;22;20188;-74
2022/10/01 11:25:58;;;;;;;1.52;1.00;;;12.10;99.90;;;;;;6221352;22;20250;-74
2022/10/01 11:28:37;;;;;;;1.33;1.10;;;12.20;99.90;;;;;;6239593;23;20238;-74
2022/10/01 11:31:14;;;;;;;1.80;1.10;;;12.20;99.90;;;;;;6236278;22;20287;-74
2022/10/01 11:33:54;;;;;;;1.00;0.90;;;12.30;99.90;;;;;;6238729;23;20267;-74
2022/10/01 11:36:29;;;;;;;2.38;2.15;;;12.30;99.90;;;;;;6238382;23;20276;-74
2022/10/01 11:39:01;;;;;;;1.00;0.95;;;12.30;99.90;;;;;;6235249;23;20293;-79
2022/10/01 11:41:34;;;;;;;0.90;0.90;;;12.30;99.90;;;;;;6225554;22;20540;-74
2022/10/01 11:44:07;;;;;;;1.30;1.20;;;12.30;99.90;;;;;;6240256;22;20226;-75
2022/10/01 11:46:48;;;;;;;1.25;1.00;;;12.40;99.90;;;;;;6238825;23;20231;-74
2022/10/01 11:49:26;;;;;;;1.10;1.00;;;12.40;99.90;;;;;;6238827;22;20227;-75
2022/10/01 11:52:07;;;;;;;1.70;0.85;;;12.40;99.90;;;;;;6240691;22;20596;-74
2022/10/01 11:54:38;;;;;;;1.00;0.80;;;12.40;99.90;;;;;;6240157;23;20538;-74
2022/10/01 12:00:04;;;;;;;0.70;0.70;;;12.50;99.90;;;;;;6240238;22;20232;-74
2022/10/01 12:02:35;;;;;;;1.25;0.80;;;12.50;99.90;;;;;;6239227;22;20201;-74
2022/10/01 12:05:09;;;;;;;0.75;0.65;;;12.50;99.90;;;;;;6240273;23;20188;-74
2022/10/01 12:07:43;;;;;;;0.90;0.75;;;12.60;99.90;;;;;;6237200;23;20181;-74
2022/10/01 12:10:32;;;;;;;0.70;0.70;;;12.60;99.90;;;;;;6238460;23;20205;-74
2022/10/01 12:13:06;;;;;;;1.10;1.00;;;12.60;99.90;;;;;;6238709;22;20185;-75
2022/10/01 12:15:45;;;;;;;0.90;0.70;;;12.60;99.90;;;;;;6235217;22;20666;-74
2022/10/01 12:18:18;;;;;;;0.70;0.60;;;12.70;99.90;;;;;;6240052;22;20674;-74
2022/10/01 12:20:49;;;;;;;0.80;0.70;;;12.70;99.90;;;;;;6238838;22;20211;-74
2022/10/01 12:23:21;;;;;;;0.80;0.70;;;12.70;99.90;;;;;;6241372;22;21288;-74
2022/10/01 12:25:57;;;;;;;0.82;0.70;;;12.80;99.90;;;;;;6243699;22;20230;-74
2022/10/01 12:28:31;;;;;;;0.80;0.80;;;12.90;99.90;;;;;;6247166;22;20220;-74
2022/10/01 12:31:04;;;;;;;0.98;0.60;;;13.00;99.90;;;;;;6235286;23;20204;-74
2022/10/01 12:33:55;;;;;;;1.50;0.82;;;13.10;99.90;;;;;;6238571;22;20220;-74
2022/10/01 12:36:35;;;;;;;0.80;0.80;;;13.20;99.90;;;;;;6237289;23;20258;-74
2022/10/01 12:39:14;;;;;;;0.80;0.70;;;13.20;99.90;;;;;;6237648;23;20449;-74
2022/10/01 12:41:51;;;;;;;0.80;0.70;;;13.30;99.90;;;;;;6239013;23;20184;-74
2022/10/01 12:44:36;;;;;;;0.95;0.70;;;13.30;99.90;;;;;;6237651;23;20312;-74
2022/10/01 12:47:16;;;;;;;1.30;0.80;;;13.30;99.90;;;;;;6236592;23;20189;-74
2022/10/01 12:49:48;;;;;;;0.80;0.80;;;13.30;99.90;;;;;;6239810;22;20223;-74
2022/10/01 12:52:32;;;;;;;0.90;0.80;;;13.30;99.90;;;;;;6223207;22;20548;-74
2022/10/01 12:55:18;;;;;;;1.30;0.87;;;13.30;99.90;;;;;;6244853;22;20184;-73
2022/10/01 12:57:52;;;;;;;1.00;0.80;;;13.40;99.90;;;;;;6238445;23;21384;-74
2022/10/01 13:00:21;;;;;;;1.00;0.90;;;13.40;99.90;;;;;;6239402;22;20240;-74
2022/10/01 13:03:27;;;;;;;2.60;0.80;;;13.50;99.90;;;;;;6237849;22;20193;-73
2022/10/01 13:06:08;;;;;;;0.70;0.70;;;13.60;99.90;;;;;;6238151;23;20489;-74
2022/10/01 13:08:54;;;;;;;1.00;0.80;;;13.60;99.90;;;;;;6234573;22;20209;-74
2022/10/01 13:11:41;;;;;;;1.00;0.90;;;13.70;99.90;;;;;;6241170;22;20423;-78
2022/10/01 13:14:13;;;;;;;1.93;1.53;;;13.80;99.90;;;;;;6246877;22;20837;-74
2022/10/01 13:16:45;;;;;;;2.10;0.90;;;13.80;99.90;;;;;;6270483;22;20429;-74